createdAt,value
2018-05-25T00:01:51.988Z,20.30
2018-05-25T00:04:18.169Z,19.47
2018-05-25T00:06:44.426Z,19.93
2018-05-25T00:09:10.620Z,19.17
2018-05-25T00:11:36.811Z,20.80
2018-05-25T00:14:03.021Z,19.87
2018-05-25T00:16:29.228Z,22.50
2018-05-25T00:18:56.176Z,20.90
2018-05-25T00:21:23.095Z,20.23
2018-05-25T00:23:49.279Z,22.53
2018-05-25T00:26:15.476Z,23.53
2018-05-25T00:28:42.440Z,23.30
2018-05-25T00:31:09.380Z,23.07
2018-05-25T00:33:35.585Z,23.73
2018-05-25T00:36:02.529Z,25.00
2018-05-25T00:38:28.723Z,22.93
2018-05-25T00:40:54.917Z,22.33
2018-05-25T00:43:21.110Z,22.80
2018-05-25T00:45:47.336Z,24.87
2018-05-25T00:48:13.531Z,24.90
2018-05-25T00:50:39.709Z,24.80
2018-05-25T00:53:05.943Z,25.17
2018-05-25T00:55:39.676Z,24.47
2018-05-25T00:58:05.938Z,26.13
2018-05-25T01:00:32.160Z,25.80
2018-05-25T01:02:58.352Z,25.13
2018-05-25T01:05:24.548Z,25.97
2018-05-25T01:07:50.739Z,24.10
2018-05-25T01:10:16.939Z,26.27
2018-05-25T01:12:43.146Z,25.83
2018-05-25T01:15:09.373Z,24.63
2018-05-25T01:17:36.309Z,24.57
2018-05-25T01:20:03.257Z,26.07
2018-05-25T01:22:29.465Z,24.93
2018-05-25T01:24:55.676Z,27.23
2018-05-25T01:27:21.868Z,26.13
2018-05-25T01:29:48.047Z,27.27
2018-05-25T01:32:14.990Z,25.73
2018-05-25T01:34:41.210Z,26.77
2018-05-25T01:37:07.390Z,25.13
2018-05-25T01:39:33.566Z,26.90
2018-05-25T01:41:59.776Z,26.87
2018-05-25T01:44:25.984Z,28.33
2018-05-25T01:46:52.431Z,26.70
2018-05-25T01:49:18.625Z,27.53
2018-05-25T01:51:44.805Z,27.07
2018-05-25T01:54:11.011Z,25.70
2018-05-25T01:56:37.223Z,26.97
2018-05-25T01:59:03.436Z,26.93
2018-05-25T02:01:29.632Z,27.07
2018-05-25T02:03:55.820Z,29.27
2018-05-25T02:06:21.995Z,26.83
2018-05-25T02:08:48.955Z,27.23
2018-05-25T02:11:15.909Z,27.13
2018-05-25T02:13:42.821Z,28.33
2018-05-25T02:16:09.899Z,27.73
2018-05-25T02:18:36.117Z,28.23
2018-05-25T02:21:03.047Z,26.07
2018-05-25T02:23:29.230Z,29.57
2018-05-25T02:25:55.407Z,26.03
2018-05-25T02:28:22.382Z,27.23
2018-05-25T02:30:48.594Z,27.27
2018-05-25T02:33:14.781Z,28.33
2018-05-25T02:35:40.969Z,28.67
2018-05-25T02:38:07.159Z,28.67
2018-05-25T02:40:33.383Z,27.77
2018-05-25T02:43:00.318Z,28.20
2018-05-25T02:45:26.521Z,27.83
2018-05-25T02:47:52.709Z,27.33
2018-05-25T02:50:18.907Z,27.30
2018-05-25T02:52:45.858Z,27.40
2018-05-25T02:55:12.773Z,28.63
2018-05-25T02:57:38.985Z,28.90
2018-05-25T03:00:05.232Z,29.93
2018-05-25T03:02:31.433Z,28.23
2018-05-25T03:04:57.642Z,29.47
2018-05-25T03:07:23.859Z,28.63
2018-05-25T03:09:50.035Z,28.43
2018-05-25T03:12:16.208Z,28.63
2018-05-25T03:14:42.684Z,29.37
2018-05-25T03:17:08.931Z,26.73
2018-05-25T03:19:35.164Z,27.87
2018-05-25T03:22:01.411Z,29.77
2018-05-25T03:24:28.327Z,29.10
2018-05-25T03:26:54.510Z,28.83
2018-05-25T03:29:20.725Z,28.53
2018-05-25T03:31:46.951Z,29.00
2018-05-25T03:34:13.140Z,29.33
2018-05-25T03:36:39.328Z,29.63
2018-05-25T03:39:05.504Z,25.07
2018-05-25T03:41:31.673Z,26.87
2018-05-25T03:43:57.880Z,28.67
2018-05-25T03:46:24.097Z,28.50
2018-05-25T03:48:50.274Z,29.50
2018-05-25T03:51:17.220Z,30.03
2018-05-25T03:53:44.128Z,28.13
2018-05-25T03:56:10.308Z,31.23
2018-05-25T03:58:48.914Z,30.27
2018-05-25T04:01:27.452Z,30.57
2018-05-25T04:03:54.519Z,30.33
2018-05-25T04:06:20.690Z,30.07
2018-05-25T04:08:46.891Z,30.50
2018-05-25T04:11:13.240Z,31.67
2018-05-25T04:13:40.198Z,28.00
2018-05-25T04:16:07.141Z,29.87
2018-05-25T04:18:34.056Z,29.27
2018-05-25T04:21:00.254Z,31.07
2018-05-25T04:23:26.445Z,28.87
2018-05-25T04:25:53.392Z,29.83
2018-05-25T04:28:20.319Z,30.60
2018-05-25T04:30:46.508Z,29.17
2018-05-25T04:33:12.716Z,31.57
2018-05-25T04:35:38.908Z,30.10
2018-05-25T04:38:05.823Z,31.13
2018-05-25T04:40:32.028Z,29.93
2018-05-25T04:42:58.213Z,31.83
2018-05-25T04:45:25.151Z,30.97
2018-05-25T04:47:51.332Z,28.33
2018-05-25T04:50:17.523Z,30.20
2018-05-25T04:52:44.462Z,30.07
2018-05-25T04:55:11.391Z,31.27
2018-05-25T04:57:37.596Z,30.67
2018-05-25T05:00:03.807Z,29.43
2018-05-25T05:02:30.025Z,29.67
2018-05-25T05:04:56.267Z,31.77
2018-05-25T05:07:23.160Z,31.67
2018-05-25T05:09:50.103Z,32.03
2018-05-25T05:12:16.297Z,31.43
2018-05-25T05:14:42.562Z,29.77
2018-05-25T05:17:08.709Z,31.63
2018-05-25T05:19:35.619Z,30.00
2018-05-25T05:22:01.823Z,30.17
2018-05-25T05:24:27.988Z,30.67
2018-05-25T05:26:54.163Z,30.83
2018-05-25T05:29:20.330Z,31.47
2018-05-25T05:31:46.554Z,30.37
2018-05-25T05:34:12.739Z,29.30
2018-05-25T05:36:38.926Z,28.90
2018-05-25T05:39:05.127Z,28.80
2018-05-25T05:41:31.319Z,27.70
2018-05-25T05:43:57.511Z,28.33
2018-05-25T05:46:23.692Z,26.80
2018-05-25T05:48:49.862Z,26.17
2018-05-25T05:51:16.035Z,24.27
2018-05-25T05:53:42.216Z,25.13
2018-05-25T05:56:09.149Z,25.77
2018-05-25T05:58:35.325Z,24.17
2018-05-25T06:01:01.527Z,22.70
2018-05-25T06:03:28.431Z,24.07
2018-05-25T06:05:54.608Z,23.03
2018-05-25T06:08:20.819Z,22.30
2018-05-25T06:10:46.995Z,22.20
2018-05-25T06:13:13.213Z,21.00
2018-05-25T06:15:39.401Z,21.73
2018-05-25T06:18:06.339Z,22.30
2018-05-25T06:20:33.268Z,22.00
2018-05-25T06:22:59.467Z,20.63
2018-05-25T06:25:25.738Z,20.67
2018-05-25T06:27:51.875Z,19.67
2018-05-25T06:30:18.070Z,20.53
2018-05-25T06:32:44.271Z,19.07
2018-05-25T06:35:10.461Z,19.17
2018-05-25T06:37:36.677Z,19.00
2018-05-25T06:40:02.871Z,18.67
2018-05-25T06:42:29.031Z,18.77
2018-05-25T06:44:55.216Z,17.63
2018-05-25T06:47:21.383Z,17.93
2018-05-25T06:49:47.574Z,17.10
2018-05-25T06:52:13.762Z,17.53
2018-05-25T06:54:40.675Z,18.17
2018-05-25T06:57:06.838Z,18.20
2018-05-25T06:59:33.748Z,17.57
2018-05-25T07:01:59.915Z,16.97
2018-05-25T07:04:26.815Z,16.27
2018-05-25T07:06:52.990Z,16.83
2018-05-25T07:09:19.906Z,15.80
2018-05-25T07:11:46.105Z,17.67
2018-05-25T07:14:12.313Z,16.90
2018-05-25T07:16:38.527Z,15.77
2018-05-25T07:19:04.695Z,16.53
2018-05-25T07:21:30.887Z,16.73
2018-05-25T07:23:57.061Z,15.80
2018-05-25T07:26:23.244Z,16.80
2018-05-25T07:28:50.169Z,15.60
2018-05-25T07:31:16.383Z,15.27
2018-05-25T07:33:43.314Z,15.07
2018-05-25T07:36:09.521Z,15.52
2018-05-25T07:38:35.704Z,15.23
2018-05-25T07:41:01.894Z,13.27
2018-05-25T07:43:28.103Z,12.27
2018-05-25T07:45:54.275Z,13.07
2018-05-25T07:48:21.182Z,15.63
2018-05-25T07:50:47.352Z,13.73
2018-05-25T07:53:14.271Z,14.93
2018-05-25T07:55:40.453Z,14.87
2018-05-25T07:58:06.628Z,15.57
2018-05-25T08:00:33.581Z,14.67
2018-05-25T08:03:00.507Z,14.97
2018-05-25T08:05:26.731Z,15.13
2018-05-25T08:07:52.917Z,15.07
2018-05-25T08:10:19.088Z,14.67
2018-05-25T08:12:45.275Z,14.87
2018-05-25T08:15:11.455Z,15.60
2018-05-25T08:17:37.637Z,13.57
2018-05-25T08:20:03.846Z,13.57
2018-05-25T08:22:30.073Z,14.10
2018-05-25T08:24:56.279Z,14.87
2018-05-25T08:27:22.476Z,16.00
2018-05-25T08:29:48.663Z,16.63
2018-05-25T08:32:15.583Z,16.93
2018-05-25T08:34:41.794Z,15.17
2018-05-25T08:37:07.928Z,16.23
2018-05-25T08:39:34.152Z,16.07
2018-05-25T08:42:00.343Z,15.57
2018-05-25T08:44:26.519Z,15.53
2018-05-25T08:46:52.711Z,15.97
2018-05-25T08:49:18.891Z,17.80
2018-05-25T08:51:45.802Z,17.07
2018-05-25T08:54:11.986Z,17.83
2018-05-25T08:56:38.187Z,16.63
2018-05-25T08:59:05.111Z,17.37
2018-05-25T09:01:31.421Z,19.37
2018-05-25T09:03:57.475Z,19.40
2018-05-25T09:06:23.647Z,19.40
2018-05-25T09:08:49.844Z,18.73
2018-05-25T09:11:16.774Z,18.93
2018-05-25T09:13:42.948Z,19.93
2018-05-25T09:16:09.129Z,18.23
2018-05-25T09:18:35.335Z,18.23
2018-05-25T09:21:01.546Z,17.42
2018-05-25T09:23:27.739Z,18.92
2018-05-25T09:25:54.665Z,18.23
2018-05-25T09:28:21.579Z,18.23
2018-05-25T09:30:47.828Z,17.85
2018-05-25T09:33:13.985Z,18.27
2018-05-25T09:35:40.166Z,17.90
2018-05-25T09:38:06.340Z,18.45
2018-05-25T09:40:33.523Z,19.45
2018-05-25T09:42:59.696Z,17.12
2018-05-25T09:45:26.635Z,18.45
2018-05-25T09:47:52.864Z,16.98
2018-05-25T09:50:19.115Z,19.00
2018-05-25T09:52:45.319Z,17.58
2018-05-25T09:55:11.513Z,17.87
2018-05-25T09:57:37.700Z,15.85
2018-05-25T10:00:03.895Z,16.80
2018-05-25T10:02:30.404Z,18.42
2018-05-25T10:04:56.583Z,16.90
2018-05-25T10:07:23.510Z,16.70
2018-05-25T10:09:49.688Z,17.23
2018-05-25T10:12:15.889Z,15.52
2018-05-25T10:14:42.075Z,17.20
2018-05-25T10:17:08.253Z,18.50
2018-05-25T10:19:34.436Z,16.63
2018-05-25T10:22:00.677Z,17.12
2018-05-25T10:24:26.873Z,17.92
2018-05-25T10:26:53.077Z,17.23
2018-05-25T10:29:19.255Z,17.97
2018-05-25T10:31:45.426Z,16.58
2018-05-25T10:34:11.621Z,17.48
2018-05-25T10:36:38.555Z,18.05
2018-05-25T10:39:04.756Z,19.12
2018-05-25T10:41:30.958Z,17.90
2018-05-25T10:43:57.147Z,17.95
2018-05-25T10:46:24.087Z,17.10
2018-05-25T10:48:51.023Z,15.95
2018-05-25T10:51:17.203Z,16.90
2018-05-25T10:53:43.382Z,15.13
2018-05-25T10:56:09.552Z,14.68
2018-05-25T10:58:35.718Z,14.48
2018-05-25T11:01:01.921Z,16.77
2018-05-25T11:03:28.123Z,17.23
2018-05-25T11:05:54.304Z,16.70
2018-05-25T11:08:20.484Z,17.08
2018-05-25T11:10:47.427Z,15.00
2018-05-25T11:13:14.753Z,16.80
2018-05-25T11:15:40.995Z,15.38
2018-05-25T11:18:07.173Z,14.75
2018-05-25T11:20:34.119Z,15.40
2018-05-25T11:23:00.308Z,14.43
2018-05-25T11:25:26.494Z,14.32
2018-05-25T11:27:52.668Z,15.93
2018-05-25T11:30:18.863Z,13.95
2018-05-25T11:32:45.042Z,13.20
2018-05-25T11:35:11.210Z,12.32
2018-05-25T11:37:37.398Z,12.15
2018-05-25T11:40:04.356Z,12.32
2018-05-25T11:42:30.543Z,12.77
2018-05-25T11:44:56.738Z,10.55
2018-05-25T11:47:22.945Z,10.50
2018-05-25T11:49:49.131Z,9.85
2018-05-25T11:52:15.524Z,10.20
2018-05-25T11:54:41.711Z,9.65
2018-05-25T11:57:07.884Z,9.40
2018-05-25T11:59:34.102Z,9.40
2018-05-25T12:02:00.279Z,9.63
2018-05-25T12:04:26.469Z,8.65
2018-05-25T12:06:52.647Z,9.00
2018-05-25T12:09:18.831Z,9.35
2018-05-25T12:11:45.067Z,9.77
2018-05-25T12:14:11.258Z,10.10
2018-05-25T12:16:37.431Z,11.35
2018-05-25T12:19:03.651Z,11.63
2018-05-25T12:21:29.853Z,11.93
2018-05-25T12:23:56.053Z,10.07
2018-05-25T12:26:22.976Z,11.80
2018-05-25T12:28:49.245Z,10.40
2018-05-25T12:31:15.412Z,10.98
2018-05-25T12:33:41.592Z,11.30
2018-05-25T12:36:08.541Z,10.68
2018-05-25T12:38:34.756Z,10.70
2018-05-25T12:41:01.820Z,10.13
2018-05-25T12:43:28.019Z,10.73
2018-05-25T12:45:54.206Z,11.93
2018-05-25T12:48:20.417Z,11.57
2018-05-25T12:50:46.600Z,13.55
2018-05-25T12:53:13.540Z,15.13
2018-05-25T12:55:40.503Z,12.55
2018-05-25T12:58:06.691Z,14.55
2018-05-25T13:00:32.901Z,13.32
2018-05-25T13:02:59.100Z,14.07
2018-05-25T13:05:25.314Z,13.88
2018-05-25T13:07:51.507Z,13.70
2018-05-25T13:10:17.680Z,12.37
2018-05-25T13:12:43.849Z,12.50
2018-05-25T13:15:10.047Z,12.82
2018-05-25T13:17:36.251Z,14.07
2018-05-25T13:20:03.188Z,13.13
2018-05-25T13:22:29.419Z,13.40
2018-05-25T13:24:55.616Z,12.40
2018-05-25T13:27:21.779Z,13.23
2018-05-25T13:29:48.745Z,12.60
2018-05-25T13:32:14.928Z,12.00
2018-05-25T13:34:41.175Z,13.10
2018-05-25T13:37:07.360Z,11.63
2018-05-25T13:39:33.550Z,12.10
2018-05-25T13:41:59.754Z,14.65
2018-05-25T13:44:25.985Z,12.40
2018-05-25T13:46:52.922Z,13.13
2018-05-25T13:49:19.173Z,13.00
2018-05-25T13:51:45.312Z,13.05
2018-05-25T13:54:11.491Z,12.43
2018-05-25T13:56:37.680Z,12.13
2018-05-25T13:59:03.888Z,10.95
2018-05-25T14:01:30.087Z,10.60
2018-05-25T14:03:56.272Z,10.75
2018-05-25T14:06:22.473Z,11.45
2018-05-25T14:08:48.664Z,10.75
2018-05-25T14:11:16.339Z,10.93
2018-05-25T14:13:43.305Z,10.57
2018-05-25T14:16:10.263Z,10.82
2018-05-25T14:18:36.439Z,9.93
2018-05-25T14:21:02.628Z,11.38
2018-05-25T14:23:28.868Z,10.82
2018-05-25T14:25:55.863Z,10.43
2018-05-25T14:28:22.060Z,9.55
2018-05-25T14:30:48.244Z,9.25
2018-05-25T14:33:14.439Z,8.90
2018-05-25T14:35:40.635Z,8.80
2018-05-25T14:38:06.816Z,8.15
2018-05-25T14:40:33.996Z,8.45
2018-05-25T14:43:00.164Z,7.82
2018-05-25T14:45:26.336Z,9.18
2018-05-25T14:47:52.537Z,8.27
2018-05-25T14:50:18.848Z,7.60
2018-05-25T14:52:45.844Z,8.15
2018-05-25T14:55:12.064Z,8.38
2018-05-25T14:57:38.975Z,7.70
2018-05-25T15:00:05.242Z,7.70
2018-05-25T15:02:31.553Z,7.28
2018-05-25T15:04:58.568Z,6.80
2018-05-25T15:07:24.899Z,7.20
2018-05-25T15:09:57.997Z,7.22
2018-05-25T15:12:24.254Z,6.45
2018-05-25T15:14:50.452Z,6.55
2018-05-25T15:17:16.635Z,6.03
2018-05-25T15:19:42.810Z,6.82
2018-05-25T15:22:09.056Z,7.10
2018-05-25T15:24:35.245Z,6.80
2018-05-25T15:27:01.411Z,7.60
2018-05-25T15:29:27.583Z,7.72
2018-05-25T15:31:53.769Z,7.55
2018-05-25T15:34:19.919Z,7.57
2018-05-25T15:36:46.856Z,8.52
2018-05-25T15:39:13.013Z,8.23
2018-05-25T15:41:39.194Z,7.60
2018-05-25T15:44:05.357Z,7.05
2018-05-25T15:46:32.233Z,7.68
2018-05-25T15:48:58.463Z,7.22
2018-05-25T15:51:24.655Z,7.40
2018-05-25T15:53:52.286Z,7.97
2018-05-25T15:56:18.469Z,7.65
2018-05-25T15:58:44.681Z,9.00
2018-05-25T16:01:10.914Z,9.40
2018-05-25T16:03:37.809Z,9.10
2018-05-25T16:06:04.762Z,9.88
2018-05-25T16:08:30.963Z,9.25
2018-05-25T16:10:57.136Z,8.57
2018-05-25T16:13:24.199Z,9.73
2018-05-25T16:15:51.124Z,9.85
2018-05-25T16:18:17.345Z,9.75
2018-05-25T16:20:43.508Z,9.77
2018-05-25T16:23:09.700Z,10.80
2018-05-25T16:25:35.887Z,10.55
2018-05-25T16:28:02.085Z,9.70
2018-05-25T16:30:28.252Z,10.45
2018-05-25T16:32:54.393Z,10.20
2018-05-25T16:35:22.080Z,9.65
2018-05-25T16:37:48.967Z,9.57
2018-05-25T16:40:15.134Z,9.60
2018-05-25T16:42:41.347Z,9.27
2018-05-25T16:45:07.493Z,9.25
2018-05-25T16:47:33.648Z,9.65
2018-05-25T16:50:00.556Z,8.93
2018-05-25T16:52:26.695Z,9.05
2018-05-25T16:54:53.623Z,9.43
2018-05-25T16:57:19.779Z,8.43
2018-05-25T16:59:45.967Z,8.53
2018-05-25T17:02:12.123Z,7.72
2018-05-25T17:04:38.300Z,7.60
2018-05-25T17:07:04.471Z,8.05
2018-05-25T17:09:30.638Z,8.50
2018-05-25T17:11:56.827Z,7.65
2018-05-25T17:14:22.997Z,7.68
2018-05-25T17:16:49.147Z,7.30
2018-05-25T17:19:15.353Z,7.47
2018-05-25T17:21:41.540Z,7.90
2018-05-25T17:24:07.688Z,7.30
2018-05-25T17:26:33.885Z,6.62
2018-05-25T17:29:00.069Z,7.30
2018-05-25T17:31:26.232Z,6.60
2018-05-25T17:33:53.179Z,6.95
2018-05-25T17:36:20.108Z,6.97
2018-05-25T17:38:46.301Z,7.72
2018-05-25T17:41:12.484Z,7.82
2018-05-25T17:43:39.407Z,6.83
2018-05-25T17:46:05.561Z,6.93
2018-05-25T17:48:31.737Z,7.25
2018-05-25T17:50:57.923Z,6.73
2018-05-25T17:53:24.064Z,6.72
2018-05-25T17:55:51.129Z,6.97
2018-05-25T17:58:17.283Z,6.82
2018-05-25T18:00:43.451Z,6.40
2018-05-25T18:03:09.662Z,6.70
2018-05-25T18:05:36.587Z,6.65
2018-05-25T18:08:02.743Z,6.20
2018-05-25T18:10:28.925Z,6.90
2018-05-25T18:12:55.059Z,6.87
2018-05-25T18:15:21.228Z,6.80
2018-05-25T18:17:47.428Z,6.13
2018-05-25T18:20:13.589Z,7.00
2018-05-25T18:22:39.740Z,6.83
2018-05-25T18:25:06.635Z,6.47
2018-05-25T18:27:32.783Z,6.03
2018-05-25T18:29:58.940Z,5.83
2018-05-25T18:32:25.107Z,5.63
2018-05-25T18:34:51.275Z,6.30
2018-05-25T18:37:18.181Z,5.77
2018-05-25T18:39:44.381Z,5.80
2018-05-25T18:42:10.548Z,5.67
2018-05-25T18:44:36.713Z,6.10
2018-05-25T18:47:03.636Z,5.77
2018-05-25T18:49:29.901Z,5.50
2018-05-25T18:51:56.067Z,5.90
2018-05-25T18:54:28.488Z,5.90
2018-05-25T18:56:55.387Z,5.70
2018-05-25T18:59:21.540Z,5.80
2018-05-25T19:01:48.009Z,6.37
2018-05-25T19:04:14.159Z,6.30
2018-05-25T19:06:40.329Z,5.40
2018-05-25T19:09:06.501Z,5.50
2018-05-25T19:11:32.686Z,5.73
2018-05-25T19:13:58.869Z,5.57
2018-05-25T19:16:25.058Z,5.80
2018-05-25T19:18:51.259Z,5.20
2018-05-25T19:21:18.160Z,5.77
2018-05-25T19:23:44.368Z,5.80
2018-05-25T19:26:10.531Z,5.93
2018-05-25T19:28:38.188Z,6.10
2018-05-25T19:31:04.362Z,6.03
2018-05-25T19:33:31.263Z,5.73
2018-05-25T19:35:57.424Z,5.67
2018-05-25T19:38:24.327Z,6.23
2018-05-25T19:40:50.495Z,6.27
2018-05-25T19:43:17.394Z,6.07
2018-05-25T19:45:43.587Z,7.40
2018-05-25T19:48:10.499Z,6.00
2018-05-25T19:50:36.757Z,6.57
2018-05-25T19:53:04.260Z,6.10
2018-05-25T19:55:30.671Z,6.50
2018-05-25T19:57:56.847Z,6.20
2018-05-25T20:00:23.783Z,6.33
2018-05-25T20:02:49.941Z,5.33
2018-05-25T20:05:16.863Z,6.43
2018-05-25T20:07:43.019Z,5.53
2018-05-25T20:10:09.918Z,6.20
2018-05-25T20:12:36.092Z,5.83
2018-05-25T20:15:02.291Z,6.20
2018-05-25T20:17:29.209Z,7.20
2018-05-25T20:19:55.379Z,7.97
2018-05-25T20:22:22.267Z,7.90
2018-05-25T20:24:48.443Z,8.57
2018-05-25T20:27:14.616Z,8.20
2018-05-25T20:29:40.778Z,7.30
2018-05-25T20:32:07.042Z,8.20
2018-05-25T20:34:33.942Z,7.13
2018-05-25T20:37:00.106Z,8.73
2018-05-25T20:39:27.027Z,8.27
2018-05-25T20:41:53.980Z,7.87
2018-05-25T20:44:20.151Z,7.90
2018-05-25T20:46:46.368Z,8.60
2018-05-25T20:49:12.576Z,7.37
2018-05-25T20:51:39.482Z,7.83
2018-05-25T20:54:05.652Z,8.40
2018-05-25T20:56:32.567Z,8.40
2018-05-25T20:58:58.772Z,7.80
2018-05-25T21:01:24.943Z,7.90
2018-05-25T21:03:51.108Z,8.13
2018-05-25T21:06:17.268Z,8.20
2018-05-25T21:08:43.453Z,8.87
2018-05-25T21:11:09.616Z,8.57
2018-05-25T21:13:35.803Z,9.00
2018-05-25T21:16:01.971Z,8.23
2018-05-25T21:18:28.119Z,8.87
2018-05-25T21:20:55.030Z,8.53
2018-05-25T21:23:21.209Z,7.83
2018-05-25T21:25:48.098Z,7.87
2018-05-25T21:28:14.259Z,8.27
2018-05-25T21:30:40.410Z,8.20
2018-05-25T21:33:07.289Z,8.33
2018-05-25T21:35:33.465Z,8.60
2018-05-25T21:37:59.608Z,9.07
2018-05-25T21:40:26.518Z,7.50
2018-05-25T21:42:52.697Z,8.20
2018-05-25T21:45:18.872Z,7.73
2018-05-25T21:47:45.040Z,8.63
2018-05-25T21:50:11.950Z,7.67
2018-05-25T21:52:38.082Z,7.80
2018-05-25T21:55:05.021Z,7.17
2018-05-25T21:57:31.191Z,7.70
2018-05-25T21:59:57.388Z,7.23
2018-05-25T22:02:23.544Z,7.77
2018-05-25T22:04:49.771Z,7.97
2018-05-25T22:07:16.666Z,7.10
2018-05-25T22:09:43.600Z,7.57
2018-05-25T22:12:09.775Z,7.67
2018-05-25T22:14:35.943Z,7.93
2018-05-25T22:17:02.107Z,7.50
2018-05-25T22:19:28.270Z,7.70
2018-05-25T22:21:54.435Z,7.77
2018-05-25T22:24:20.605Z,7.43
2018-05-25T22:26:46.772Z,7.53
2018-05-25T22:29:12.960Z,7.47
2018-05-25T22:31:39.865Z,7.90
2018-05-25T22:34:06.044Z,8.57
2018-05-25T22:36:32.966Z,8.43
2018-05-25T22:38:59.132Z,7.80
2018-05-25T22:41:25.309Z,8.17
2018-05-25T22:44:03.857Z,7.47
2018-05-25T22:46:48.843Z,8.07
2018-05-25T22:49:33.743Z,7.57
2018-05-25T22:52:21.563Z,7.13
2018-05-25T22:54:47.767Z,7.87
2018-05-25T22:57:13.951Z,7.10
2018-05-25T22:59:40.903Z,6.77
2018-05-25T23:02:07.100Z,7.07
2018-05-25T23:04:33.284Z,6.50
2018-05-25T23:06:59.483Z,7.47
2018-05-25T23:09:26.403Z,7.57
2018-05-25T23:11:52.582Z,7.80
2018-05-25T23:14:18.775Z,8.30
2018-05-25T23:16:45.029Z,9.23
2018-05-25T23:19:11.228Z,10.27
2018-05-25T23:21:38.220Z,9.83
2018-05-25T23:24:04.408Z,9.97
2018-05-25T23:26:31.337Z,9.30
2018-05-25T23:28:58.277Z,10.53
2018-05-25T23:31:24.460Z,9.47
2018-05-25T23:33:50.644Z,10.27
2018-05-25T23:36:17.576Z,9.80
2018-05-25T23:38:43.763Z,8.60
2018-05-25T23:41:09.965Z,10.50
2018-05-25T23:43:36.183Z,10.60
2018-05-25T23:46:02.350Z,9.93
2018-05-25T23:48:28.543Z,10.30
2018-05-25T23:50:54.728Z,10.03
2018-05-25T23:53:20.908Z,9.90
2018-05-25T23:55:47.095Z,10.40
2018-05-25T23:58:14.019Z,9.53
